Time;durP1;ratioP1;P1;durP2;ratioP2;P2;SDS_P1;SDS_P2;PMS_P1;PMS_P2;Temp;Humidity;BMP_temperature;BMP_pressure;BME280_temperature;BME280_humidity;BME280_pressure;Samples;Min_cycle;Max_cycle;Signal;HPM_P1;HPM_P2
2022/04/02 00:01:44;;;;;;;4.20;2.60;;;;;;;0.04;53.08;100420.59;7394323;19;20025;-65
2022/04/02 00:04:14;;;;;;;3.85;2.15;;;;;;;0.02;52.91;100419.72;7393952;19;20026;-65
2022/04/02 00:06:42;;;;;;;3.15;2.03;;;;;;;-0.02;53.12;100419.63;7395650;19;20021;-65
2022/04/02 00:09:10;;;;;;;2.90;2.08;;;;;;;-0.03;53.10;100420.47;7395610;19;20027;-65
2022/04/02 00:11:38;;;;;;;4.78;1.90;;;;;;;-0.06;53.42;100414.44;7393809;19;20107;-66
2022/04/02 00:14:06;;;;;;;3.25;1.95;;;;;;;-0.07;53.31;100417.84;7394339;19;20014;-65
2022/04/02 00:16:37;;;;;;;3.05;2.03;;;;;;;-0.13;53.81;100412.59;7393585;19;20035;-65
2022/04/02 00:19:05;;;;;;;4.38;2.55;;;;;;;-0.18;54.43;100421.13;7393332;19;20524;-65
2022/04/02 00:21:33;;;;;;;3.63;2.10;;;;;;;-0.21;54.89;100421.06;7393334;19;20014;-65
2022/04/02 00:24:01;;;;;;;4.10;2.05;;;;;;;-0.24;54.07;100433.00;7393701;19;20011;-65
2022/04/02 00:26:29;;;;;;;3.33;2.30;;;;;;;-0.26;53.57;100425.25;7393389;19;20018;-65
2022/04/02 00:28:57;;;;;;;4.60;2.28;;;;;;;-0.28;53.65;100428.66;7395001;19;20073;-66
2022/04/02 00:31:29;;;;;;;4.00;2.47;;;;;;;-0.32;54.76;100421.72;7394899;19;20091;-65
2022/04/02 00:34:00;;;;;;;3.30;1.90;;;;;;;-0.34;53.91;100424.28;7394156;19;20027;-66
2022/04/02 00:36:31;;;;;;;3.28;2.00;;;;;;;-0.37;53.91;100421.63;7395211;19;20014;-66
2022/04/02 00:38:59;;;;;;;5.57;2.35;;;;;;;-0.41;54.18;100428.44;7394558;19;20355;-67
2022/04/02 00:41:27;;;;;;;4.10;2.38;;;;;;;-0.44;54.08;100414.63;7392619;19;20014;-66
2022/04/02 00:44:09;;;;;;;4.97;2.03;;;;;;;-0.46;55.38;100417.16;7393128;19;20018;-66
2022/04/02 00:46:37;;;;;;;5.47;2.60;;;;;;;-0.49;54.39;100419.72;7401068;19;20031;-66
2022/04/02 00:49:08;;;;;;;3.75;2.30;;;;;;;-0.52;54.26;100425.69;7402136;19;20040;-67
2022/04/02 00:51:41;;;;;;;3.10;2.10;;;;;;;-0.54;54.69;100432.50;7402375;19;20022;-66
2022/04/02 00:54:11;;;;;;;6.18;2.40;;;;;;;-0.59;54.96;100434.13;7400378;19;20038;-66
2022/04/02 00:56:40;;;;;;;4.05;2.40;;;;;;;-0.62;54.66;100434.09;7402273;19;20014;-66
2022/04/02 00:59:10;;;;;;;4.10;2.30;;;;;;;-0.64;55.20;100438.31;7401837;19;20026;-66
2022/04/02 01:01:38;;;;;;;4.07;2.10;;;;;;;-0.68;55.62;100444.28;7398396;19;20474;-66
2022/04/02 01:04:10;;;;;;;3.95;2.45;;;;;;;-0.72;56.05;100443.34;7399904;19;20018;-66
2022/04/02 01:06:39;;;;;;;3.63;2.40;;;;;;;-0.74;55.53;100444.16;7401885;19;20014;-66
2022/04/02 01:09:09;;;;;;;8.20;2.90;;;;;;;-0.79;55.52;100448.34;7398664;19;20083;-66
2022/04/02 01:11:38;;;;;;;4.50;2.50;;;;;;;-0.82;55.43;100450.00;7401268;19;20018;-66
2022/04/02 01:14:07;;;;;;;3.55;2.35;;;;;;;-0.87;56.69;100451.63;7399823;19;20035;-66
2022/04/02 01:16:36;;;;;;;3.47;2.10;;;;;;;-0.87;56.73;100461.06;7398443;19;20019;-66
2022/04/02 01:19:05;;;;;;;3.90;2.70;;;;;;;-0.90;56.46;100461.00;7401195;19;20026;-66
2022/04/02 01:21:36;;;;;;;5.13;2.25;;;;;;;-0.91;56.62;100469.56;7398233;19;20026;-66
2022/04/02 01:24:08;;;;;;;4.88;2.60;;;;;;;-0.95;57.95;100468.59;7397606;19;20011;-66
2022/04/02 01:26:36;;;;;;;2.50;2.30;;;;;;;-0.97;56.21;100472.88;7401276;19;20481;-66
2022/04/02 01:29:06;;;;;;;6.03;2.30;;;;;;;-0.98;56.37;100474.56;7400770;19;20043;-66
2022/04/02 01:31:35;;;;;;;7.22;3.20;;;;;;;-1.00;56.40;100472.81;7401413;19;20018;-66
2022/04/02 01:34:04;;;;;;;5.22;2.88;;;;;;;-1.02;57.59;100471.91;7397611;19;20517;-66
2022/04/02 01:36:32;;;;;;;4.45;2.40;;;;;;;-1.05;56.68;100472.72;7400094;19;20419;-67
2022/04/02 01:39:00;;;;;;;4.07;2.42;;;;;;;-1.07;56.82;100464.09;7398122;19;20022;-67
2022/04/02 01:41:31;;;;;;;4.57;2.30;;;;;;;-1.07;56.99;100470.94;7397786;19;20019;-67
2022/04/02 01:43:59;;;;;;;5.53;2.72;;;;;;;-1.07;56.97;100471.81;7397987;19;20090;-67
2022/04/02 01:46:27;;;;;;;4.05;3.00;;;;;;;-1.07;57.54;100470.94;7397722;19;20018;-67
2022/04/02 01:48:55;;;;;;;3.90;2.28;;;;;;;-1.08;58.58;100474.34;7399754;19;20499;-67
2022/04/02 01:51:23;;;;;;;4.00;2.40;;;;;;;-1.08;57.90;100471.78;7400074;19;20367;-66
2022/04/02 01:53:51;;;;;;;4.03;2.92;;;;;;;-1.11;57.86;100470.00;7397535;19;20070;-67
2022/04/02 01:56:19;;;;;;;5.70;2.83;;;;;;;-1.12;58.24;100475.13;7398811;19;20086;-67
2022/04/02 01:58:50;;;;;;;4.93;2.90;;;;;;;-1.15;59.17;100469.06;7397489;19;20026;-67
2022/04/02 02:01:19;;;;;;;6.03;3.17;;;;;;;-1.17;57.70;100467.31;7397675;19;20019;-67
2022/04/02 02:03:47;;;;;;;5.38;2.70;;;;;;;-1.15;59.10;100473.34;7396975;19;20090;-66
2022/04/02 02:06:15;;;;;;;5.97;3.33;;;;;;;-1.16;58.30;100474.19;7399610;19;20031;-67
2022/04/02 02:08:43;;;;;;;5.32;2.88;;;;;;;-1.17;58.27;100475.03;7399043;19;20015;-67
2022/04/02 02:11:11;;;;;;;6.88;2.70;;;;;;;-1.17;58.69;100470.72;7397093;19;20018;-67
2022/04/02 02:13:39;;;;;;;5.72;2.80;;;;;;;-1.18;58.71;100461.25;7396969;19;20035;-67
2022/04/02 02:16:17;;;;;;;4.38;2.90;;;;;;;-1.18;59.05;100466.41;7396918;19;20053;-67
2022/04/02 02:18:45;;;;;;;5.05;2.72;;;;;;;-1.20;58.55;100462.97;7398625;19;20498;-67
2022/04/02 02:21:13;;;;;;;3.85;2.80;;;;;;;-1.18;58.88;100462.97;7398701;19;20506;-67
2022/04/02 02:23:41;;;;;;;6.10;2.83;;;;;;;-1.21;59.23;100463.78;7396801;19;20078;-67
2022/04/02 02:26:10;;;;;;;5.45;2.72;;;;;;;-1.23;58.94;100460.31;7398759;19;20036;-66
2022/04/02 02:28:38;;;;;;;6.22;2.80;;;;;;;-1.22;59.38;100463.75;7399223;19;20023;-65
2022/04/02 02:31:06;;;;;;;5.13;3.05;;;;;;;-1.23;58.91;100464.59;7396375;19;20023;-65
2022/04/02 02:36:18;;;;;;;6.25;2.88;;;;;;;-1.26;59.41;100467.97;7398578;19;20022;-66
2022/04/02 02:38:47;;;;;;;4.30;3.13;;;;;;;-1.25;59.76;100471.41;7398428;19;20033;-66
2022/04/02 02:41:16;;;;;;;5.95;3.10;;;;;;;-1.31;59.69;100461.84;7398340;19;20431;-66
2022/04/02 02:43:44;;;;;;;5.95;3.05;;;;;;;-1.27;59.77;100470.50;7396770;19;20033;-66
2022/04/02 02:46:14;;;;;;;5.10;2.75;;;;;;;-1.33;59.84;100464.41;7396184;19;20026;-66
2022/04/02 02:48:45;;;;;;;6.70;2.83;;;;;;;-1.31;59.98;100464.44;7396591;19;20021;-66
2022/04/02 02:51:14;;;;;;;3.97;2.53;;;;;;;-1.30;59.88;100476.47;7398506;19;20022;-66
2022/04/02 02:53:44;;;;;;;6.18;3.75;;;;;;;-1.31;60.36;100478.16;7397041;19;20018;-66
2022/04/02 02:56:12;;;;;;;4.40;3.25;;;;;;;-1.29;60.58;100472.19;7397519;19;20481;-65
2022/04/02 02:58:40;;;;;;;4.25;3.15;;;;;;;-1.33;60.34;100469.56;7395927;19;20022;-66
2022/04/02 03:01:09;;;;;;;5.18;3.25;;;;;;;-1.31;60.39;100472.16;7397579;19;20074;-65
2022/04/02 03:03:37;;;;;;;4.57;2.80;;;;;;;-1.32;61.49;100471.25;7396201;19;20019;-66
2022/04/02 03:06:08;;;;;;;5.35;2.70;;;;;;;-1.31;61.48;100474.72;7397347;19;20029;-65
2022/04/02 03:08:37;;;;;;;6.75;3.53;;;;;;;-1.31;61.67;100477.28;7395762;19;20019;-65
2022/04/02 03:11:06;;;;;;;7.18;3.28;;;;;;;-1.29;61.14;100473.03;7397315;19;20018;-66
2022/04/02 03:13:34;;;;;;;5.93;3.00;;;;;;;-1.28;61.80;100479.06;7396634;19;20032;-66
2022/04/02 03:16:09;;;;;;;4.75;3.10;;;;;;;-1.28;62.03;100477.34;7397212;19;20026;-66
2022/04/02 03:18:37;;;;;;;6.53;3.00;;;;;;;-1.29;62.28;100472.19;7397565;19;20031;-66
2022/04/02 03:21:05;;;;;;;3.67;2.80;;;;;;;-1.31;63.95;100470.44;7396999;19;20018;-66
2022/04/02 03:23:35;;;;;;;5.30;3.47;;;;;;;-1.29;63.42;100477.31;7395477;19;20033;-66
2022/04/02 03:26:04;;;;;;;4.35;3.17;;;;;;;-1.29;63.57;100479.91;7395548;19;20014;-66
2022/04/02 03:28:32;;;;;;;5.40;2.97;;;;;;;-1.31;64.39;100479.88;7395021;19;20018;-65
2022/04/02 03:31:01;;;;;;;5.22;3.35;;;;;;;-1.31;64.63;100473.00;7396610;19;20078;-66
2022/04/02 03:33:29;;;;;;;5.70;2.88;;;;;;;-1.30;63.56;100484.19;7394786;19;20039;-66
2022/04/02 03:35:57;;;;;;;8.63;3.40;;;;;;;-1.28;63.88;100481.66;7394885;19;20070;-66
2022/04/02 03:38:25;;;;;;;6.70;3.28;;;;;;;-1.27;64.07;100484.25;7394386;19;20417;-66
2022/04/02 03:40:56;;;;;;;6.32;2.75;;;;;;;-1.29;65.73;100491.06;7394561;19;20031;-66
2022/04/02 03:43:25;;;;;;;5.22;3.13;;;;;;;-1.27;64.56;100485.97;7394639;19;20014;-66
2022/04/02 03:47:07;;;;;;;6.45;3.22;;;;;;;-1.27;64.66;100491.97;7396312;19;20035;-66
2022/04/02 03:48:41;;;;;;;6.72;2.90;;;;;;;-1.27;64.80;100501.41;7395705;19;20010;-66
2022/04/02 03:51:09;;;;;;;5.35;3.42;;;;;;;-1.26;65.96;100496.28;7396198;19;20074;-66
2022/04/02 03:53:37;;;;;;;4.68;2.60;;;;;;;-1.25;64.59;100497.13;7395246;19;20387;-66
2022/04/02 03:56:10;;;;;;;5.03;2.80;;;;;;;-1.23;65.28;100503.22;7394095;19;20018;-66
2022/04/02 03:58:38;;;;;;;7.10;3.13;;;;;;;-1.22;65.86;100504.94;7396241;19;20022;-66
2022/04/02 04:01:06;;;;;;;5.90;2.88;;;;;;;-1.22;65.23;100499.81;7395117;19;20032;-66
2022/04/02 04:03:34;;;;;;;3.85;3.10;;;;;;;-1.20;65.04;100503.25;7394118;19;20060;-66
2022/04/02 04:06:03;;;;;;;8.65;3.30;;;;;;;-1.19;65.26;100505.00;7395441;19;20031;-66
2022/04/02 04:08:31;;;;;;;6.95;3.03;;;;;;;-1.17;64.89;100511.06;7394015;19;20018;-66
2022/04/02 04:10:59;;;;;;;7.47;3.38;;;;;;;-1.16;65.30;100508.53;7395165;19;20477;-66
2022/04/02 04:13:30;;;;;;;6.78;2.85;;;;;;;-1.15;66.61;100510.28;7394160;19;20023;-66
2022/04/02 04:15:58;;;;;;;8.63;3.20;;;;;;;-1.13;66.99;100507.72;7394169;19;20018;-66
2022/04/02 04:18:26;;;;;;;13.32;3.40;;;;;;;-1.13;67.16;100507.72;7395266;19;20015;-66
2022/04/02 04:20:55;;;;;;;4.40;3.15;;;;;;;-1.11;67.02;100507.75;7394672;19;20014;-66
2022/04/02 04:23:25;;;;;;;4.72;2.92;;;;;;;-1.09;66.21;100508.66;7394033;19;20035;-66
2022/04/02 04:25:54;;;;;;;4.43;3.22;;;;;;;-1.08;66.64;100510.41;7395429;19;20018;-66
2022/04/02 04:28:22;;;;;;;7.10;3.00;;;;;;;-1.08;67.88;100513.84;7394779;19;20023;-66
2022/04/02 04:30:53;;;;;;;5.07;3.28;;;;;;;-1.06;66.35;100508.72;7394749;19;20035;-66
2022/04/02 04:33:21;;;;;;;7.72;3.75;;;;;;;-1.02;66.26;100523.41;7393095;19;20039;-66
2022/04/02 04:35:49;;;;;;;6.95;2.60;;;;;;;-1.02;66.71;100521.69;7394340;19;20477;-66
2022/04/02 04:38:17;;;;;;;6.95;2.83;;;;;;;-1.04;66.46;100519.94;7393090;19;20022;-67
2022/04/02 04:40:45;;;;;;;5.30;3.03;;;;;;;-0.97;66.57;100532.13;7394908;19;20423;-66
2022/04/02 04:43:14;;;;;;;5.70;2.85;;;;;;;-0.98;67.54;100533.81;7394180;19;20035;-66
2022/04/02 04:45:42;;;;;;;6.72;3.92;;;;;;;-0.96;68.00;100536.44;7394598;19;20022;-66
2022/04/02 04:48:13;;;;;;;6.93;3.08;;;;;;;-0.95;66.96;100538.16;7392802;19;20022;-66
2022/04/02 04:50:41;;;;;;;5.65;2.78;;;;;;;-0.94;66.90;100542.47;7392359;19;20492;-66
2022/04/02 04:53:10;;;;;;;6.20;2.72;;;;;;;-0.92;67.04;100538.22;7394066;19;20019;-66
2022/04/02 04:55:38;;;;;;;5.45;2.63;;;;;;;-0.90;66.82;100546.84;7394329;19;20022;-67
2022/04/02 04:58:06;;;;;;;4.82;2.90;;;;;;;-0.88;66.66;100539.19;7392487;19;20031;-66
2022/04/02 05:00:35;;;;;;;5.57;3.30;;;;;;;-0.86;66.72;100547.78;7393756;19;20355;-66
2022/04/02 05:03:04;;;;;;;7.53;2.50;;;;;;;-0.85;66.91;100539.22;7394169;19;20077;-66
2022/04/02 05:05:35;;;;;;;6.97;2.63;;;;;;;-0.83;66.50;100553.03;7394217;19;20493;-66
2022/04/02 05:08:04;;;;;;;6.88;2.90;;;;;;;-0.80;67.37;100549.63;7393388;19;20018;-68
2022/04/02 05:10:32;;;;;;;6.72;2.67;;;;;;;-0.78;66.94;100547.94;7393166;19;20489;-65
2022/04/02 05:13:01;;;;;;;6.03;2.70;;;;;;;-0.77;68.49;100552.25;7393358;19;20035;-65
2022/04/02 05:15:29;;;;;;;4.07;2.70;;;;;;;-0.76;67.36;100556.59;7393511;19;20028;-66
2022/04/02 05:17:58;;;;;;;5.63;3.38;;;;;;;-0.73;67.08;100565.25;7393421;19;20485;-66
2022/04/02 05:20:27;;;;;;;6.40;2.83;;;;;;;-0.70;67.83;100561.88;7393368;19;20015;-66
2022/04/02 05:23:32;;;;;;;5.60;2.60;;;;;;;-0.68;67.99;100565.38;7392636;19;20014;-66
2022/04/02 05:26:00;;;;;;;5.35;2.72;;;;;;;-0.64;67.10;100558.53;7393769;19;20015;-67
2022/04/02 05:28:28;;;;;;;5.53;2.20;;;;;;;-0.61;67.62;100567.22;7392949;19;20485;-66
2022/04/02 05:30:57;;;;;;;7.45;2.60;;;;;;;-0.59;67.39;100564.69;7391933;19;20035;-65
2022/04/02 05:33:25;;;;;;;7.35;2.90;;;;;;;-0.56;67.43;100563.03;7399629;19;20034;-65
2022/04/02 05:35:53;;;;;;;5.75;2.88;;;;;;;-0.52;67.15;100564.84;7397898;19;20043;-65
2022/04/02 05:38:21;;;;;;;7.22;2.83;;;;;;;-0.50;67.15;100565.72;7396682;19;20384;-65
2022/04/02 05:40:52;;;;;;;8.02;2.97;;;;;;;-0.46;68.08;100568.38;7398476;19;20039;-64
2022/04/02 05:43:20;;;;;;;7.38;3.30;;;;;;;-0.40;67.12;100576.25;7397054;19;20023;-66
2022/04/02 05:45:48;;;;;;;6.07;2.10;;;;;;;-0.36;68.10;100586.63;7399924;19;20032;-71
2022/04/02 05:48:20;;;;;;;4.82;3.15;;;;;;;-0.32;66.88;100585.00;7397145;19;20502;-66
2022/04/02 05:50:48;;;;;;;5.82;3.08;;;;;;;-0.26;67.56;100585.13;7399527;19;20500;-66
2022/04/02 05:53:17;;;;;;;5.80;2.70;;;;;;;-0.22;66.86;100581.75;7399130;19;20023;-66
2022/04/02 05:55:45;;;;;;;7.40;3.15;;;;;;;-0.18;67.98;100582.69;7399840;19;20046;-66
2022/04/02 05:58:16;;;;;;;4.55;2.97;;;;;;;-0.11;67.76;100591.44;7399687;19;20032;-65
2022/04/02 06:00:44;;;;;;;7.80;3.03;;;;;;;-0.07;66.88;100591.50;7397120;19;20019;-67
2022/04/02 06:03:12;;;;;;;4.15;3.03;;;;;;;0.00;66.48;100595.09;7397353;19;20019;-66
2022/04/02 06:05:40;;;;;;;9.25;2.90;;;;;;;0.05;67.23;100596.03;7396696;19;20423;-65
2022/04/02 06:08:10;;;;;;;5.03;2.65;;;;;;;0.11;66.05;100603.88;7399071;19;20032;-65
2022/04/02 06:10:38;;;;;;;5.03;2.60;;;;;;;0.17;66.66;100608.28;7396377;19;20381;-66
2022/04/02 06:13:06;;;;;;;6.60;2.78;;;;;;;0.23;65.77;100615.25;7398490;19;20026;-66
2022/04/02 06:15:37;;;;;;;5.03;2.85;;;;;;;0.29;65.78;100617.94;7399002;19;20035;-66
2022/04/02 06:18:07;;;;;;;8.00;2.90;;;;;;;0.30;65.46;100617.13;7399103;19;20018;-65
2022/04/02 06:20:35;;;;;;;7.95;2.60;;;;;;;0.38;65.43;100620.72;7398754;19;20031;-64
2022/04/02 06:23:03;;;;;;;6.03;3.10;;;;;;;0.43;65.33;100634.59;7395979;19;21874;-65
2022/04/02 06:25:31;;;;;;;9.55;2.50;;;;;;;0.46;65.30;100629.47;7396591;19;20007;-65
2022/04/02 06:27:59;;;;;;;4.18;2.30;;;;;;;0.53;65.08;100632.16;7396100;19;20521;-66
2022/04/02 06:30:27;;;;;;;6.85;2.80;;;;;;;0.59;65.06;100630.53;7398702;19;20019;-64
2022/04/02 06:33:00;;;;;;;6.28;2.70;;;;;;;0.63;65.04;100631.47;7396448;19;20035;-65
2022/04/02 06:35:29;;;;;;;7.65;2.20;;;;;;;0.70;64.95;100635.03;7398586;19;20046;-66
2022/04/02 06:37:57;;;;;;;5.38;2.53;;;;;;;0.75;64.42;100633.41;7397910;19;20018;-66
2022/04/02 06:40:27;;;;;;;4.78;2.55;;;;;;;0.81;64.15;100636.09;7395774;19;20348;-64
2022/04/02 06:42:56;;;;;;;7.07;2.38;;;;;;;0.85;63.97;100632.69;7397916;19;20022;-66
2022/04/02 06:45:24;;;;;;;4.13;2.15;;;;;;;0.93;63.47;100631.09;7396272;19;20014;-63
2022/04/02 06:47:53;;;;;;;4.97;2.90;;;;;;;0.99;63.48;100632.91;7398218;19;20014;-64
2022/04/02 06:50:23;;;;;;;4.65;3.45;;;;;;;1.05;63.21;100635.59;7395603;19;20533;-65
2022/04/02 06:52:51;;;;;;;4.82;2.30;;;;;;;1.11;62.94;100634.81;7396104;19;20031;-64
2022/04/02 06:55:20;;;;;;;5.22;2.53;;;;;;;1.14;62.84;100621.97;7395881;19;20039;-71
2022/04/02 06:57:54;;;;;;;5.60;2.63;;;;;;;1.24;62.20;100628.09;7397638;19;20455;-65
2022/04/02 07:00:23;;;;;;;4.75;2.42;;;;;;;1.30;61.90;100629.09;7396589;19;20019;-66
2022/04/02 07:02:51;;;;;;;4.95;2.70;;;;;;;1.35;61.79;100630.84;7397403;19;20019;-66
2022/04/02 07:05:20;;;;;;;5.82;2.30;;;;;;;1.39;61.71;100627.47;7395134;19;20494;-66
2022/04/02 07:07:52;;;;;;;6.88;2.15;;;;;;;1.50;61.42;100632.78;7395615;19;20098;-66
2022/04/02 07:10:21;;;;;;;4.55;2.70;;;;;;;1.59;61.04;100644.13;7396021;19;20045;-66
2022/04/02 07:12:49;;;;;;;6.43;2.75;;;;;;;1.63;60.61;100652.78;7395358;19;20018;-65
2022/04/02 07:15:17;;;;;;;6.07;2.63;;;;;;;1.69;60.69;100636.50;7396826;19;20498;-65
2022/04/02 07:17:45;;;;;;;8.65;2.88;;;;;;;1.67;59.59;100639.06;7394847;19;20022;-66
2022/04/02 07:20:14;;;;;;;3.90;2.67;;;;;;;1.76;59.69;100641.75;7394739;19;20031;-65
2022/04/02 07:22:43;;;;;;;10.15;3.10;;;;;;;1.83;59.58;100645.28;7394989;19;20027;-65
2022/04/02 07:25:14;;;;;;;6.32;2.65;;;;;;;1.88;59.00;100645.34;7394720;19;20015;-67
2022/04/02 07:27:43;;;;;;;5.57;2.55;;;;;;;1.92;58.98;100649.69;7395739;19;20014;-66
2022/04/02 07:30:11;;;;;;;5.57;2.47;;;;;;;1.95;58.82;100648.03;7397123;19;20025;-67
2022/04/02 07:32:40;;;;;;;5.63;2.28;;;;;;;1.98;58.82;100654.09;7395965;19;20022;-65
2022/04/02 07:35:10;;;;;;;3.60;2.03;;;;;;;2.01;58.19;100655.00;7394575;19;20015;-66
2022/04/02 07:37:53;;;;;;;5.25;2.22;;;;;;;2.01;57.58;100652.44;7394903;19;20031;-65
2022/04/02 07:40:27;;;;;;;3.53;2.25;;;;;;;2.11;57.75;100661.13;7394822;19;20019;-66
2022/04/02 07:43:04;;;;;;;4.03;2.40;;;;;;;2.15;56.88;100657.75;7394287;19;20023;-65
2022/04/02 07:45:43;;;;;;;5.28;2.30;;;;;;;2.18;56.56;100668.13;7394497;19;20021;-65
2022/04/02 07:48:13;;;;;;;5.40;2.45;;;;;;;2.21;56.54;100657.84;7394790;19;20015;-65
2022/04/02 07:50:45;;;;;;;4.03;2.20;;;;;;;2.25;56.03;100653.53;7395922;19;20031;-65
2022/04/02 07:53:21;;;;;;;4.45;2.50;;;;;;;2.32;56.12;100655.34;7394456;19;20130;-65
2022/04/02 07:55:56;;;;;;;4.15;2.22;;;;;;;2.42;56.27;100671.84;7393772;19;20043;-65
2022/04/02 07:58:31;;;;;;;3.88;2.45;;;;;;;2.53;55.89;100670.25;7394926;19;20022;-65
2022/04/02 08:01:02;;;;;;;4.72;2.22;;;;;;;2.65;55.51;100671.22;7395773;19;20018;-65
2022/04/02 08:03:32;;;;;;;3.88;2.50;;;;;;;2.71;55.15;100674.72;7394204;19;20031;-65
2022/04/02 08:06:01;;;;;;;3.72;1.98;;;;;;;2.75;54.60;100675.63;7393924;19;20027;-64
2022/04/02 08:08:31;;;;;;;6.00;1.92;;;;;;;2.79;54.36;100668.75;7395764;19;20010;-66
2022/04/02 08:11:03;;;;;;;3.83;2.22;;;;;;;2.82;53.88;100656.69;7395356;19;20023;-66
2022/04/02 08:13:33;;;;;;;5.57;2.30;;;;;;;2.91;54.41;100668.88;7393253;19;20482;-65
2022/04/02 08:16:02;;;;;;;3.38;2.63;;;;;;;3.02;53.85;100672.41;7393724;19;20018;-66
2022/04/02 08:18:31;;;;;;;3.67;2.17;;;;;;;3.09;53.73;100673.31;7393553;19;20036;-65
2022/04/02 08:20:59;;;;;;;6.22;2.25;;;;;;;3.17;53.74;100678.56;7393169;19;20023;-65
2022/04/02 08:23:27;;;;;;;3.72;2.45;;;;;;;3.19;53.43;100669.09;7394291;19;20019;-66
2022/04/02 08:26:07;;;;;;;3.92;2.17;;;;;;;3.17;52.88;100669.09;7392746;19;20360;-66
2022/04/02 08:28:51;;;;;;;4.28;2.13;;;;;;;3.18;53.16;100669.94;7393506;19;20015;-65
2022/04/02 08:31:29;;;;;;;9.27;2.38;;;;;;;3.17;53.11;100683.75;7393897;19;20126;-66
2022/04/02 08:34:06;;;;;;;6.10;2.13;;;;;;;3.20;53.34;100683.78;7392976;19;20041;-65
2022/04/02 08:36:42;;;;;;;4.35;2.20;;;;;;;3.24;53.31;100677.75;7394857;19;20028;-65
2022/04/02 08:39:19;;;;;;;5.38;2.28;;;;;;;3.24;52.01;100682.94;7393887;19;20489;-65
2022/04/02 08:42:44;;;;;;;4.68;2.47;;;;;;;3.20;49.70;100679.47;7393553;19;20032;-66
2022/04/02 08:45:14;;;;;;;4.18;2.20;;;;;;;3.24;51.25;100683.81;7392219;19;20132;-66
2022/04/02 08:48:12;;;;;;;2.33;2.05;;;;;;;3.29;48.53;100683.84;7394629;19;20334;-65
2022/04/02 08:50:47;;;;;;;5.30;2.30;;;;;;;3.35;49.30;100689.06;7394509;19;20502;-65
2022/04/02 08:53:20;;;;;;;3.55;2.30;;;;;;;3.40;48.81;100692.56;7393422;19;20019;-65
2022/04/02 08:55:51;;;;;;;3.63;1.88;;;;;;;3.45;49.11;100683.94;7394234;19;20018;-66
2022/04/02 08:58:27;;;;;;;5.72;2.70;;;;;;;3.56;48.55;100695.25;7392463;19;20042;-65
2022/04/02 09:01:07;;;;;;;3.72;2.05;;;;;;;3.66;47.98;100684.06;7394360;19;20108;-65
2022/04/02 09:04:07;;;;;;;5.70;2.00;;;;;;;3.70;46.45;100691.03;7393402;19;20014;-65
2022/04/02 09:07:17;;;;;;;3.28;2.03;;;;;;;3.74;45.34;100686.69;7395133;19;20045;-66
2022/04/02 09:10:14;;;;;;;3.60;2.30;;;;;;;3.79;45.38;100686.75;7398827;19;20026;-66
2022/04/02 09:12:58;;;;;;;3.28;2.22;;;;;;;3.86;46.54;100688.50;7399105;19;20035;-65
2022/04/02 09:15:33;;;;;;;;;;;;;;;3.95;46.26;100683.34;7402460;19;20023;-65
2022/04/02 09:18:05;;;;;;;10.50;2.97;;;;;;;4.03;46.74;100683.38;7398648;19;19941;-65
2022/04/02 09:20:45;;;;;;;4.63;2.75;;;;;;;4.09;46.20;100693.81;7398158;19;20087;-66
2022/04/02 09:23:17;;;;;;;15.20;8.13;;;;;;;4.14;46.27;100686.91;7400648;19;20032;-66
2022/04/02 09:26:20;;;;;;;7.00;2.83;;;;;;;4.19;46.30;100694.72;7396647;19;20010;-66
2022/04/02 09:29:02;;;;;;;5.25;2.85;;;;;;;4.18;46.55;100695.56;7400126;19;20022;-65
2022/04/02 09:32:06;;;;;;;5.28;2.17;;;;;;;4.14;45.74;100699.03;7397539;19;20018;-66
2022/04/02 09:35:07;;;;;;;5.25;2.53;;;;;;;4.12;46.30;100682.56;7397515;19;20029;-66
2022/04/02 09:38:06;;;;;;;5.65;2.17;;;;;;;4.11;46.10;100701.59;7399522;19;20496;-65
2022/04/02 09:40:41;;;;;;;5.25;2.28;;;;;;;4.13;46.00;100703.34;7398919;19;20031;-66
2022/04/02 09:43:19;;;;;;;4.55;2.03;;;;;;;4.16;46.32;100697.31;7396967;19;20018;-65
2022/04/02 09:46:08;;;;;;;3.33;1.88;;;;;;;4.16;46.52;100707.69;7396941;19;20039;-65
2022/04/02 09:48:46;;;;;;;2.38;1.70;;;;;;;4.07;46.16;100696.41;7397201;19;20018;-65
2022/04/02 09:51:21;;;;;;;3.47;2.33;;;;;;;4.02;46.39;100698.09;7396965;19;20039;-65
2022/04/02 09:54:03;;;;;;;3.90;2.50;;;;;;;4.02;46.10;100705.91;7396714;19;20385;-65
2022/04/02 09:56:41;;;;;;;4.68;2.20;;;;;;;4.00;45.80;100701.56;7399932;19;20014;-65
2022/04/02 09:59:20;;;;;;;2.38;1.90;;;;;;;4.00;46.17;100699.81;7397574;19;20014;-65
2022/04/02 10:01:59;;;;;;;2.25;1.70;;;;;;;4.05;45.50;100695.50;7399681;19;20035;-66
2022/04/02 10:04:40;;;;;;;3.05;2.75;;;;;;;4.10;44.81;100699.88;7397832;19;20035;-65
2022/04/02 10:07:20;;;;;;;5.32;1.75;;;;;;;4.15;45.18;100703.38;7399565;19;20014;-65
2022/04/02 10:09:55;;;;;;;2.72;2.13;;;;;;;4.20;45.57;100696.44;7399520;19;20018;-66
2022/04/02 10:12:26;;;;;;;5.05;2.05;;;;;;;4.27;45.48;100698.19;7396415;19;20385;-64
2022/04/02 10:14:59;;;;;;;2.53;2.17;;;;;;;4.35;44.36;100691.31;7396600;19;20031;-64
2022/04/02 10:17:31;;;;;;;4.80;2.20;;;;;;;4.39;44.56;100687.84;7396838;19;20026;-65
2022/04/02 10:20:00;;;;;;;2.70;2.20;;;;;;;4.43;43.83;100695.66;7397499;19;20429;-65
2022/04/02 10:22:38;;;;;;;3.90;2.50;;;;;;;4.54;43.58;100689.63;7397150;19;20047;-64
2022/04/02 10:25:12;;;;;;;4.85;2.58;;;;;;;4.65;42.76;100692.25;7395448;19;20492;-65
2022/04/02 10:27:42;;;;;;;8.48;2.83;;;;;;;4.75;43.35;100687.91;7398480;19;20477;-65
2022/04/02 10:30:11;;;;;;;5.53;2.40;;;;;;;4.87;43.19;100680.13;7396374;19;20095;-66
2022/04/02 10:33:26;;;;;;;3.42;2.38;;;;;;;5.00;40.86;100696.59;7396477;19;20045;-65
2022/04/02 10:35:53;;;;;;;5.22;1.80;;;;;;;5.07;40.81;100689.69;7397774;19;20011;-66
2022/04/02 10:38:34;;;;;;;3.97;2.20;;;;;;;5.16;40.64;100688.81;7398005;19;20405;-66
2022/04/02 10:41:09;;;;;;;3.42;2.20;;;;;;;5.25;41.15;100683.59;7398717;19;20020;-65
2022/04/02 10:43:45;;;;;;;2.88;2.05;;;;;;;5.26;39.10;100687.94;7396221;19;20046;-65
2022/04/02 10:46:22;;;;;;;4.25;2.38;;;;;;;5.29;39.37;100687.94;7397813;19;20470;-67
2022/04/02 10:49:04;;;;;;;4.00;2.22;;;;;;;5.31;39.57;100677.53;7398205;19;20026;-66
2022/04/02 10:51:34;;;;;;;3.47;1.98;;;;;;;5.41;40.79;100686.19;7396406;19;20019;-65
2022/04/02 10:54:07;;;;;;;2.75;1.83;;;;;;;5.51;39.49;100682.69;7396558;19;20019;-66
2022/04/02 10:56:44;;;;;;;2.63;1.73;;;;;;;5.59;39.72;100685.31;7398324;19;20041;-66
2022/04/02 10:59:15;;;;;;;7.28;2.88;;;;;;;5.55;37.77;100680.09;7396363;19;20019;-66
2022/04/02 11:01:45;;;;;;;5.40;2.30;;;;;;;5.58;39.45;100689.63;7396484;19;20018;-67
2022/04/02 11:04:30;;;;;;;4.47;2.30;;;;;;;5.52;38.08;100680.09;7395688;19;20018;-67
2022/04/02 11:06:59;;;;;;;2.15;1.80;;;;;;;5.54;38.93;100673.13;7396092;19;20010;-65
2022/04/02 11:09:32;;;;;;;3.33;2.17;;;;;;;5.54;37.83;100685.31;7395472;19;20513;-68
2022/04/02 11:12:05;;;;;;;2.47;2.20;;;;;;;5.59;39.17;100686.16;7395818;19;20029;-68
2022/04/02 11:14:40;;;;;;;4.68;1.98;;;;;;;5.65;38.30;100682.66;7395339;19;20041;-66
2022/04/02 11:17:08;;;;;;;5.57;2.20;;;;;;;5.69;38.03;100676.59;7395686;19;20018;-66
2022/04/02 11:22:27;;;;;;;3.45;2.45;;;;;;;5.81;36.89;100683.50;7396991;19;20018;-67
2022/04/02 11:25:05;;;;;;;2.60;1.83;;;;;;;5.91;37.64;100682.59;7394523;19;20477;-66
2022/04/02 11:27:38;;;;;;;2.08;1.80;;;;;;;5.97;36.96;100672.16;7395966;19;20034;-67
2022/04/02 11:30:10;;;;;;;2.85;1.70;;;;;;;6.08;36.63;100679.09;7394289;19;20366;-67
2022/04/02 11:32:43;;;;;;;6.00;2.40;;;;;;;6.09;37.05;100680.81;7394496;19;20435;-66
2022/04/02 11:35:16;;;;;;;4.00;2.17;;;;;;;6.09;37.90;100686.91;7395354;19;20019;-67
2022/04/02 11:37:58;;;;;;;3.80;1.88;;;;;;;6.01;37.05;100684.31;7394202;19;20481;-67
2022/04/02 11:40:32;;;;;;;7.13;2.58;;;;;;;5.92;37.39;100680.88;7396706;19;20011;-67
2022/04/02 11:43:03;;;;;;;4.75;3.03;;;;;;;5.84;37.09;100683.50;7395176;19;20035;-66
2022/04/02 11:45:32;;;;;;;5.63;2.60;;;;;;;5.78;37.90;100688.72;7394601;19;20034;-66
2022/04/02 11:48:11;;;;;;;7.13;2.70;;;;;;;5.73;37.66;100698.28;7395208;19;20041;-66
2022/04/02 11:50:43;;;;;;;4.65;2.28;;;;;;;5.71;38.11;100691.34;7394582;19;20414;-65
2022/04/02 11:53:12;;;;;;;5.47;2.40;;;;;;;5.75;37.27;100686.13;7395692;19;20490;-67
2022/04/02 11:55:44;;;;;;;4.28;2.80;;;;;;;5.73;36.65;100693.09;7396461;19;20035;-67
2022/04/02 11:58:14;;;;;;;6.75;2.53;;;;;;;5.73;36.72;100695.69;7395937;19;20028;-65